sensor_id;sensor_type;location;lat;lon;timestamp;P1;durP1;ratioP1;P2;durP2;ratioP2
14251;SDS011;7210;51.502;10.722;2023-08-12T00:02:13;20.17;;;12.50;;
14251;SDS011;7210;51.502;10.722;2023-08-12T00:04:41;9.67;;;8.40;;
14251;SDS011;7210;51.502;10.722;2023-08-12T00:07:08;10.17;;;5.00;;
14251;SDS011;7210;51.502;10.722;2023-08-12T00:09:35;7.70;;;4.40;;
14251;SDS011;7210;51.502;10.722;2023-08-12T00:12:11;9.77;;;4.90;;
14251;SDS011;7210;51.502;10.722;2023-08-12T00:14:42;11.90;;;6.30;;
14251;SDS011;7210;51.502;10.722;2023-08-12T00:17:11;6.10;;;3.83;;
14251;SDS011;7210;51.502;10.722;2023-08-12T00:19:41;6.53;;;3.73;;
14251;SDS011;7210;51.502;10.722;2023-08-12T00:22:08;7.70;;;4.27;;
14251;SDS011;7210;51.502;10.722;2023-08-12T00:24:47;6.03;;;3.73;;
14251;SDS011;7210;51.502;10.722;2023-08-12T00:27:15;6.43;;;4.00;;
14251;SDS011;7210;51.502;10.722;2023-08-12T00:29:45;7.47;;;4.07;;
14251;SDS011;7210;51.502;10.722;2023-08-12T00:32:12;8.23;;;3.97;;
14251;SDS011;7210;51.502;10.722;2023-08-12T00:34:39;8.37;;;4.97;;
14251;SDS011;7210;51.502;10.722;2023-08-12T00:37:11;12.23;;;6.83;;
14251;SDS011;7210;51.502;10.722;2023-08-12T00:39:41;8.30;;;5.67;;
14251;SDS011;7210;51.502;10.722;2023-08-12T00:42:11;7.90;;;5.57;;
14251;SDS011;7210;51.502;10.722;2023-08-12T00:44:38;5.27;;;4.23;;
14251;SDS011;7210;51.502;10.722;2023-08-12T00:47:12;8.37;;;4.70;;
14251;SDS011;7210;51.502;10.722;2023-08-12T00:49:40;7.10;;;3.80;;
14251;SDS011;7210;51.502;10.722;2023-08-12T00:52:10;9.97;;;4.57;;
14251;SDS011;7210;51.502;10.722;2023-08-12T00:54:41;6.80;;;4.40;;
14251;SDS011;7210;51.502;10.722;2023-08-12T00:57:11;8.87;;;4.37;;
14251;SDS011;7210;51.502;10.722;2023-08-12T00:59:41;8.63;;;4.80;;
14251;SDS011;7210;51.502;10.722;2023-08-12T01:02:18;7.73;;;4.20;;
14251;SDS011;7210;51.502;10.722;2023-08-12T01:04:46;11.00;;;4.10;;
14251;SDS011;7210;51.502;10.722;2023-08-12T01:07:17;13.53;;;4.77;;
14251;SDS011;7210;51.502;10.722;2023-08-12T01:09:44;8.93;;;4.37;;
14251;SDS011;7210;51.502;10.722;2023-08-12T01:12:12;13.47;;;4.10;;
14251;SDS011;7210;51.502;10.722;2023-08-12T01:14:56;8.00;;;4.03;;
14251;SDS011;7210;51.502;10.722;2023-08-12T01:17:37;8.97;;;4.47;;
14251;SDS011;7210;51.502;10.722;2023-08-12T01:20:09;7.83;;;3.80;;
14251;SDS011;7210;51.502;10.722;2023-08-12T01:22:40;7.40;;;4.07;;
14251;SDS011;7210;51.502;10.722;2023-08-12T01:25:11;6.87;;;4.20;;
14251;SDS011;7210;51.502;10.722;2023-08-12T01:27:39;6.87;;;4.07;;
14251;SDS011;7210;51.502;10.722;2023-08-12T01:30:06;8.27;;;4.03;;
14251;SDS011;7210;51.502;10.722;2023-08-12T01:32:37;8.53;;;4.10;;
14251;SDS011;7210;51.502;10.722;2023-08-12T01:35:14;11.23;;;4.17;;
14251;SDS011;7210;51.502;10.722;2023-08-12T01:37:48;6.07;;;3.90;;
14251;SDS011;7210;51.502;10.722;2023-08-12T01:40:22;8.17;;;4.13;;
14251;SDS011;7210;51.502;10.722;2023-08-12T01:42:50;5.33;;;3.63;;
14251;SDS011;7210;51.502;10.722;2023-08-12T01:45:23;7.07;;;3.80;;
14251;SDS011;7210;51.502;10.722;2023-08-12T01:47:50;7.70;;;3.67;;
14251;SDS011;7210;51.502;10.722;2023-08-12T01:50:23;13.13;;;4.50;;
14251;SDS011;7210;51.502;10.722;2023-08-12T01:52:53;7.67;;;3.90;;
14251;SDS011;7210;51.502;10.722;2023-08-12T01:55:30;5.27;;;4.00;;
14251;SDS011;7210;51.502;10.722;2023-08-12T01:57:59;8.60;;;4.43;;
14251;SDS011;7210;51.502;10.722;2023-08-12T02:00:26;7.13;;;5.00;;
14251;SDS011;7210;51.502;10.722;2023-08-12T02:02:54;8.97;;;4.80;;
14251;SDS011;7210;51.502;10.722;2023-08-12T02:05:23;10.83;;;4.53;;
14251;SDS011;7210;51.502;10.722;2023-08-12T02:07:53;8.33;;;4.73;;
14251;SDS011;7210;51.502;10.722;2023-08-12T02:10:20;11.57;;;4.40;;
14251;SDS011;7210;51.502;10.722;2023-08-12T02:12:49;7.37;;;6.53;;
14251;SDS011;7210;51.502;10.722;2023-08-12T02:15:16;14.23;;;6.07;;
14251;SDS011;7210;51.502;10.722;2023-08-12T02:17:44;14.10;;;6.93;;
14251;SDS011;7210;51.502;10.722;2023-08-12T02:20:23;8.73;;;5.03;;
14251;SDS011;7210;51.502;10.722;2023-08-12T02:22:50;10.43;;;6.40;;
14251;SDS011;7210;51.502;10.722;2023-08-12T02:25:18;7.43;;;5.07;;
14251;SDS011;7210;51.502;10.722;2023-08-12T02:27:45;9.80;;;4.70;;
14251;SDS011;7210;51.502;10.722;2023-08-12T02:30:14;7.53;;;4.83;;
14251;SDS011;7210;51.502;10.722;2023-08-12T02:32:41;5.80;;;5.17;;
14251;SDS011;7210;51.502;10.722;2023-08-12T02:35:09;10.23;;;5.13;;
14251;SDS011;7210;51.502;10.722;2023-08-12T02:37:36;8.23;;;5.20;;
14251;SDS011;7210;51.502;10.722;2023-08-12T02:40:04;10.70;;;6.77;;
14251;SDS011;7210;51.502;10.722;2023-08-12T02:42:33;7.77;;;5.53;;
14251;SDS011;7210;51.502;10.722;2023-08-12T02:45:01;11.10;;;4.60;;
14251;SDS011;7210;51.502;10.722;2023-08-12T02:47:30;5.70;;;4.70;;
14251;SDS011;7210;51.502;10.722;2023-08-12T02:49:57;6.73;;;4.50;;
14251;SDS011;7210;51.502;10.722;2023-08-12T02:52:29;8.70;;;4.93;;
14251;SDS011;7210;51.502;10.722;2023-08-12T02:54:56;5.27;;;4.60;;
14251;SDS011;7210;51.502;10.722;2023-08-12T02:57:23;13.90;;;7.57;;
14251;SDS011;7210;51.502;10.722;2023-08-12T02:59:53;7.97;;;4.90;;
14251;SDS011;7210;51.502;10.722;2023-08-12T03:02:20;6.77;;;4.27;;
14251;SDS011;7210;51.502;10.722;2023-08-12T03:04:49;8.83;;;5.00;;
14251;SDS011;7210;51.502;10.722;2023-08-12T03:07:16;6.10;;;4.70;;
14251;SDS011;7210;51.502;10.722;2023-08-12T03:09:44;10.97;;;6.27;;
14251;SDS011;7210;51.502;10.722;2023-08-12T03:12:17;9.43;;;5.77;;
14251;SDS011;7210;51.502;10.722;2023-08-12T03:14:44;10.30;;;6.00;;
14251;SDS011;7210;51.502;10.722;2023-08-12T03:17:12;8.70;;;5.17;;
14251;SDS011;7210;51.502;10.722;2023-08-12T03:19:41;7.03;;;5.00;;
14251;SDS011;7210;51.502;10.722;2023-08-12T03:22:10;4.90;;;4.10;;
14251;SDS011;7210;51.502;10.722;2023-08-12T03:24:39;5.43;;;4.93;;
14251;SDS011;7210;51.502;10.722;2023-08-12T03:27:11;9.93;;;4.53;;
14251;SDS011;7210;51.502;10.722;2023-08-12T03:29:41;9.57;;;4.33;;
14251;SDS011;7210;51.502;10.722;2023-08-12T03:32:08;8.03;;;4.77;;
14251;SDS011;7210;51.502;10.722;2023-08-12T03:34:36;10.93;;;5.37;;
14251;SDS011;7210;51.502;10.722;2023-08-12T03:37:05;6.87;;;4.00;;
14251;SDS011;7210;51.502;10.722;2023-08-12T03:39:48;7.27;;;4.73;;
14251;SDS011;7210;51.502;10.722;2023-08-12T03:42:17;7.20;;;4.67;;
14251;SDS011;7210;51.502;10.722;2023-08-12T03:44:47;9.03;;;4.50;;
14251;SDS011;7210;51.502;10.722;2023-08-12T03:47:16;7.77;;;5.03;;
14251;SDS011;7210;51.502;10.722;2023-08-12T03:49:47;5.03;;;4.17;;
14251;SDS011;7210;51.502;10.722;2023-08-12T03:52:14;9.90;;;5.10;;
14251;SDS011;7210;51.502;10.722;2023-08-12T03:54:42;12.57;;;7.57;;
14251;SDS011;7210;51.502;10.722;2023-08-12T03:57:12;22.57;;;14.20;;
14251;SDS011;7210;51.502;10.722;2023-08-12T03:59:41;14.27;;;8.70;;
14251;SDS011;7210;51.502;10.722;2023-08-12T04:02:08;12.57;;;6.33;;
14251;SDS011;7210;51.502;10.722;2023-08-12T04:04:36;7.70;;;6.00;;
14251;SDS011;7210;51.502;10.722;2023-08-12T04:07:05;9.47;;;6.00;;
14251;SDS011;7210;51.502;10.722;2023-08-12T04:09:35;7.57;;;5.63;;
14251;SDS011;7210;51.502;10.722;2023-08-12T04:12:02;8.23;;;5.47;;
14251;SDS011;7210;51.502;10.722;2023-08-12T04:14:31;8.30;;;4.80;;
14251;SDS011;7210;51.502;10.722;2023-08-12T04:16:59;6.97;;;5.30;;
14251;SDS011;7210;51.502;10.722;2023-08-12T04:19:26;9.03;;;5.13;;
14251;SDS011;7210;51.502;10.722;2023-08-12T04:21:54;5.23;;;4.73;;
14251;SDS011;7210;51.502;10.722;2023-08-12T04:24:23;6.73;;;5.37;;
14251;SDS011;7210;51.502;10.722;2023-08-12T04:26:51;6.70;;;4.77;;
14251;SDS011;7210;51.502;10.722;2023-08-12T04:29:18;11.23;;;5.13;;
14251;SDS011;7210;51.502;10.722;2023-08-12T04:31:48;9.10;;;4.93;;
14251;SDS011;7210;51.502;10.722;2023-08-12T04:34:15;8.30;;;5.10;;
14251;SDS011;7210;51.502;10.722;2023-08-12T04:36:43;7.93;;;5.20;;
14251;SDS011;7210;51.502;10.722;2023-08-12T04:39:10;5.50;;;4.93;;
14251;SDS011;7210;51.502;10.722;2023-08-12T04:41:37;7.07;;;4.80;;
14251;SDS011;7210;51.502;10.722;2023-08-12T04:44:05;7.83;;;5.83;;
14251;SDS011;7210;51.502;10.722;2023-08-12T04:46:33;5.40;;;4.90;;
14251;SDS011;7210;51.502;10.722;2023-08-12T04:49:02;11.07;;;5.87;;
14251;SDS011;7210;51.502;10.722;2023-08-12T04:51:30;8.63;;;5.93;;
14251;SDS011;7210;51.502;10.722;2023-08-12T04:53:59;12.37;;;6.13;;
14251;SDS011;7210;51.502;10.722;2023-08-12T04:56:27;8.83;;;5.97;;
14251;SDS011;7210;51.502;10.722;2023-08-12T04:58:55;9.60;;;5.73;;
14251;SDS011;7210;51.502;10.722;2023-08-12T05:01:23;10.07;;;5.43;;
14251;SDS011;7210;51.502;10.722;2023-08-12T05:03:59;6.87;;;5.57;;
14251;SDS011;7210;51.502;10.722;2023-08-12T05:06:28;8.10;;;5.70;;
14251;SDS011;7210;51.502;10.722;2023-08-12T05:08:56;10.00;;;6.27;;
14251;SDS011;7210;51.502;10.722;2023-08-12T05:11:24;7.60;;;5.20;;
14251;SDS011;7210;51.502;10.722;2023-08-12T05:13:51;13.40;;;6.13;;
14251;SDS011;7210;51.502;10.722;2023-08-12T05:16:19;11.30;;;6.27;;
14251;SDS011;7210;51.502;10.722;2023-08-12T05:18:47;9.97;;;6.20;;
14251;SDS011;7210;51.502;10.722;2023-08-12T05:24:17;9.93;;;6.77;;
14251;SDS011;7210;51.502;10.722;2023-08-12T05:26:44;9.10;;;6.37;;
14251;SDS011;7210;51.502;10.722;2023-08-12T05:29:12;10.63;;;6.80;;
14251;SDS011;7210;51.502;10.722;2023-08-12T05:31:41;10.77;;;6.57;;
14251;SDS011;7210;51.502;10.722;2023-08-12T05:34:18;9.07;;;5.97;;
14251;SDS011;7210;51.502;10.722;2023-08-12T05:36:47;10.17;;;5.93;;
14251;SDS011;7210;51.502;10.722;2023-08-12T05:39:15;10.17;;;6.87;;
14251;SDS011;7210;51.502;10.722;2023-08-12T05:44:32;10.33;;;6.60;;
14251;SDS011;7210;51.502;10.722;2023-08-12T05:47:05;7.90;;;6.00;;
14251;SDS011;7210;51.502;10.722;2023-08-12T05:49:35;6.87;;;6.17;;
14251;SDS011;7210;51.502;10.722;2023-08-12T05:52:04;9.37;;;6.73;;
14251;SDS011;7210;51.502;10.722;2023-08-12T05:54:32;9.20;;;5.83;;
14251;SDS011;7210;51.502;10.722;2023-08-12T05:57:00;11.43;;;6.10;;
14251;SDS011;7210;51.502;10.722;2023-08-12T05:59:28;10.07;;;6.73;;
14251;SDS011;7210;51.502;10.722;2023-08-12T06:01:59;9.27;;;6.53;;
14251;SDS011;7210;51.502;10.722;2023-08-12T06:04:29;12.03;;;7.77;;
14251;SDS011;7210;51.502;10.722;2023-08-12T06:06:56;9.60;;;8.70;;
14251;SDS011;7210;51.502;10.722;2023-08-12T06:09:30;8.73;;;7.83;;
14251;SDS011;7210;51.502;10.722;2023-08-12T06:11:59;12.27;;;7.00;;
14251;SDS011;7210;51.502;10.722;2023-08-12T06:14:29;8.63;;;7.13;;
14251;SDS011;7210;51.502;10.722;2023-08-12T06:16:56;9.37;;;6.70;;
14251;SDS011;7210;51.502;10.722;2023-08-12T06:19:24;8.60;;;6.80;;
14251;SDS011;7210;51.502;10.722;2023-08-12T06:24:55;7.83;;;7.03;;
14251;SDS011;7210;51.502;10.722;2023-08-12T06:27:22;9.70;;;6.97;;
14251;SDS011;7210;51.502;10.722;2023-08-12T06:29:53;11.40;;;7.63;;
14251;SDS011;7210;51.502;10.722;2023-08-12T06:32:21;11.20;;;8.47;;
14251;SDS011;7210;51.502;10.722;2023-08-12T06:34:53;10.10;;;8.50;;
14251;SDS011;7210;51.502;10.722;2023-08-12T06:37:23;11.30;;;8.23;;
14251;SDS011;7210;51.502;10.722;2023-08-12T06:39:50;9.17;;;8.27;;
14251;SDS011;7210;51.502;10.722;2023-08-12T06:42:31;9.10;;;8.00;;
14251;SDS011;7210;51.502;10.722;2023-08-12T06:44:58;11.77;;;7.33;;
14251;SDS011;7210;51.502;10.722;2023-08-12T06:47:29;10.07;;;8.17;;
14251;SDS011;7210;51.502;10.722;2023-08-12T06:49:56;15.97;;;10.20;;
14251;SDS011;7210;51.502;10.722;2023-08-12T06:55:29;8.43;;;7.53;;
14251;SDS011;7210;51.502;10.722;2023-08-12T06:58:00;8.60;;;7.57;;
14251;SDS011;7210;51.502;10.722;2023-08-12T07:04:41;10.43;;;7.80;;
14251;SDS011;7210;51.502;10.722;2023-08-12T07:21:05;7.80;;;6.80;;
14251;SDS011;7210;51.502;10.722;2023-08-12T07:23:41;8.03;;;7.20;;
14251;SDS011;7210;51.502;10.722;2023-08-12T07:29:20;8.47;;;7.60;;
14251;SDS011;7210;51.502;10.722;2023-08-12T07:35:55;6.73;;;6.03;;
14251;SDS011;7210;51.502;10.722;2023-08-12T07:42:30;7.37;;;6.27;;
14251;SDS011;7210;51.502;10.722;2023-08-12T07:56:04;8.30;;;6.53;;
14251;SDS011;7210;51.502;10.722;2023-08-12T08:05:16;7.77;;;6.17;;
14251;SDS011;7210;51.502;10.722;2023-08-12T08:11:51;7.27;;;6.13;;
14251;SDS011;7210;51.502;10.722;2023-08-12T08:18:25;8.57;;;6.25;;
14251;SDS011;7210;51.502;10.722;2023-08-12T08:24:59;6.43;;;5.83;;
14251;SDS011;7210;51.502;10.722;2023-08-12T08:31:34;8.23;;;5.70;;
14251;SDS011;7210;51.502;10.722;2023-08-12T08:38:08;6.67;;;5.23;;
14251;SDS011;7210;51.502;10.722;2023-08-12T08:44:42;7.77;;;5.00;;
14251;SDS011;7210;51.502;10.722;2023-08-12T08:51:20;10.77;;;5.78;;
14251;SDS011;7210;51.502;10.722;2023-08-12T08:57:55;11.77;;;10.57;;
14251;SDS011;7210;51.502;10.722;2023-08-12T09:08:39;8.30;;;6.17;;
14251;SDS011;7210;51.502;10.722;2023-08-12T09:15:18;6.50;;;5.73;;
14251;SDS011;7210;51.502;10.722;2023-08-12T09:25:11;8.03;;;6.33;;
14251;SDS011;7210;51.502;10.722;2023-08-12T09:31:45;7.53;;;5.90;;
14251;SDS011;7210;51.502;10.722;2023-08-12T09:38:19;7.43;;;6.73;;
14251;SDS011;7210;51.502;10.722;2023-08-12T09:44:57;10.63;;;7.80;;
14251;SDS011;7210;51.502;10.722;2023-08-12T09:51:33;7.63;;;6.57;;
14251;SDS011;7210;51.502;10.722;2023-08-12T09:58:09;7.20;;;6.37;;
14251;SDS011;7210;51.502;10.722;2023-08-12T10:08:54;6.00;;;5.50;;
14251;SDS011;7210;51.502;10.722;2023-08-12T10:27:10;6.20;;;5.60;;
14251;SDS011;7210;51.502;10.722;2023-08-12T10:29:42;7.85;;;5.50;;
14251;SDS011;7210;51.502;10.722;2023-08-12T10:32:17;6.05;;;5.55;;
14251;SDS011;7210;51.502;10.722;2023-08-12T10:34:45;5.93;;;5.32;;
14251;SDS011;7210;51.502;10.722;2023-08-12T10:37:20;6.50;;;5.90;;
14251;SDS011;7210;51.502;10.722;2023-08-12T10:39:51;6.88;;;5.80;;
14251;SDS011;7210;51.502;10.722;2023-08-12T10:45:40;5.38;;;4.88;;
14251;SDS011;7210;51.502;10.722;2023-08-12T10:48:18;6.32;;;5.38;;
14251;SDS011;7210;51.502;10.722;2023-08-12T10:50:48;5.50;;;4.53;;
14251;SDS011;7210;51.502;10.722;2023-08-12T10:53:31;5.78;;;4.70;;
14251;SDS011;7210;51.502;10.722;2023-08-12T10:56:05;5.75;;;4.70;;
14251;SDS011;7210;51.502;10.722;2023-08-12T10:58:45;4.93;;;4.47;;
14251;SDS011;7210;51.502;10.722;2023-08-12T11:04:02;5.70;;;3.80;;
14251;SDS011;7210;51.502;10.722;2023-08-12T11:06:45;3.78;;;3.10;;
14251;SDS011;7210;51.502;10.722;2023-08-12T11:09:12;3.85;;;3.47;;
14251;SDS011;7210;51.502;10.722;2023-08-12T11:11:40;3.03;;;2.83;;
14251;SDS011;7210;51.502;10.722;2023-08-12T11:14:13;3.67;;;3.20;;
14251;SDS011;7210;51.502;10.722;2023-08-12T11:16:42;3.50;;;3.20;;
14251;SDS011;7210;51.502;10.722;2023-08-12T11:19:11;3.10;;;2.90;;
14251;SDS011;7210;51.502;10.722;2023-08-12T11:21:40;3.65;;;3.35;;
14251;SDS011;7210;51.502;10.722;2023-08-12T11:24:09;4.07;;;3.25;;
14251;SDS011;7210;51.502;10.722;2023-08-12T11:26:37;3.47;;;3.10;;
14251;SDS011;7210;51.502;10.722;2023-08-12T11:29:08;3.95;;;3.30;;
14251;SDS011;7210;51.502;10.722;2023-08-12T11:31:55;3.58;;;3.28;;
14251;SDS011;7210;51.502;10.722;2023-08-12T11:34:22;4.00;;;3.70;;
14251;SDS011;7210;51.502;10.722;2023-08-12T11:36:50;3.50;;;3.20;;
14251;SDS011;7210;51.502;10.722;2023-08-12T11:39:29;3.22;;;2.95;;
14251;SDS011;7210;51.502;10.722;2023-08-12T11:41:57;4.32;;;3.40;;
14251;SDS011;7210;51.502;10.722;2023-08-12T11:44:24;3.58;;;3.20;;
14251;SDS011;7210;51.502;10.722;2023-08-12T11:46:55;5.28;;;3.50;;
14251;SDS011;7210;51.502;10.722;2023-08-12T11:52:20;3.50;;;3.20;;
14251;SDS011;7210;51.502;10.722;2023-08-12T11:54:53;3.63;;;2.97;;
14251;SDS011;7210;51.502;10.722;2023-08-12T11:57:21;3.22;;;2.92;;
14251;SDS011;7210;51.502;10.722;2023-08-12T11:59:53;3.63;;;3.13;;
14251;SDS011;7210;51.502;10.722;2023-08-12T12:02:27;3.08;;;2.78;;
14251;SDS011;7210;51.502;10.722;2023-08-12T12:04:54;4.18;;;2.90;;
14251;SDS011;7210;51.502;10.722;2023-08-12T12:07:24;3.22;;;2.92;;
14251;SDS011;7210;51.502;10.722;2023-08-12T12:09:52;3.55;;;3.10;;
14251;SDS011;7210;51.502;10.722;2023-08-12T12:12:24;3.47;;;3.03;;
14251;SDS011;7210;51.502;10.722;2023-08-12T12:14:51;3.13;;;2.92;;
14251;SDS011;7210;51.502;10.722;2023-08-12T12:17:31;3.10;;;2.90;;
14251;SDS011;7210;51.502;10.722;2023-08-12T12:20:00;3.58;;;2.78;;
14251;SDS011;7210;51.502;10.722;2023-08-12T12:22:28;3.40;;;3.10;;
14251;SDS011;7210;51.502;10.722;2023-08-12T12:24:59;7.18;;;3.20;;
14251;SDS011;7210;51.502;10.722;2023-08-12T12:27:32;3.22;;;2.92;;
14251;SDS011;7210;51.502;10.722;2023-08-12T12:30:06;3.50;;;3.20;;
14251;SDS011;7210;51.502;10.722;2023-08-12T12:32:43;3.10;;;2.90;;
14251;SDS011;7210;51.502;10.722;2023-08-12T12:35:11;3.05;;;2.65;;
14251;SDS011;7210;51.502;10.722;2023-08-12T12:37:38;3.20;;;2.90;;
14251;SDS011;7210;51.502;10.722;2023-08-12T12:40:23;3.28;;;2.83;;
14251;SDS011;7210;51.502;10.722;2023-08-12T12:42:59;3.00;;;2.80;;
14251;SDS011;7210;51.502;10.722;2023-08-12T12:45:28;3.70;;;2.40;;
14251;SDS011;7210;51.502;10.722;2023-08-12T12:48:01;3.03;;;2.75;;
14251;SDS011;7210;51.502;10.722;2023-08-12T12:50:28;2.88;;;2.45;;
14251;SDS011;7210;51.502;10.722;2023-08-12T12:52:55;3.38;;;2.58;;
14251;SDS011;7210;51.502;10.722;2023-08-12T12:55:23;2.85;;;2.40;;
14251;SDS011;7210;51.502;10.722;2023-08-12T13:00:38;4.45;;;2.50;;
14251;SDS011;7210;51.502;10.722;2023-08-12T13:03:07;2.40;;;2.20;;
14251;SDS011;7210;51.502;10.722;2023-08-12T13:05:41;2.65;;;2.30;;
14251;SDS011;7210;51.502;10.722;2023-08-12T13:11:23;3.15;;;1.92;;
14251;SDS011;7210;51.502;10.722;2023-08-12T13:13:51;2.72;;;1.80;;
14251;SDS011;7210;51.502;10.722;2023-08-12T13:16:19;2.30;;;2.10;;
14251;SDS011;7210;51.502;10.722;2023-08-12T13:18:49;2.72;;;2.10;;
14251;SDS011;7210;51.502;10.722;2023-08-12T13:21:16;1.90;;;1.80;;
14251;SDS011;7210;51.502;10.722;2023-08-12T13:23:43;3.35;;;2.10;;
14251;SDS011;7210;51.502;10.722;2023-08-12T13:26:17;2.20;;;2.00;;
14251;SDS011;7210;51.502;10.722;2023-08-12T13:28:45;3.33;;;2.15;;
14251;SDS011;7210;51.502;10.722;2023-08-12T13:31:13;2.50;;;2.30;;
14251;SDS011;7210;51.502;10.722;2023-08-12T13:33:40;2.80;;;2.10;;
14251;SDS011;7210;51.502;10.722;2023-08-12T13:36:13;2.30;;;2.10;;
14251;SDS011;7210;51.502;10.722;2023-08-12T13:38:40;2.17;;;1.90;;
14251;SDS011;7210;51.502;10.722;2023-08-12T13:41:07;4.22;;;2.22;;
14251;SDS011;7210;51.502;10.722;2023-08-12T13:43:35;2.30;;;2.10;;
14251;SDS011;7210;51.502;10.722;2023-08-12T13:57:11;2.50;;;2.30;;
14251;SDS011;7210;51.502;10.722;2023-08-12T14:03:44;2.92;;;2.47;;
14251;SDS011;7210;51.502;10.722;2023-08-12T14:06:12;2.80;;;2.60;;
14251;SDS011;7210;51.502;10.722;2023-08-12T14:08:41;3.33;;;2.90;;
14251;SDS011;7210;51.502;10.722;2023-08-12T14:11:09;2.88;;;2.40;;
14251;SDS011;7210;51.502;10.722;2023-08-12T14:13:37;4.22;;;2.50;;
14251;SDS011;7210;51.502;10.722;2023-08-12T14:16:05;3.33;;;2.42;;
14251;SDS011;7210;51.502;10.722;2023-08-12T14:18:32;2.78;;;2.58;;
14251;SDS011;7210;51.502;10.722;2023-08-12T14:20:59;2.70;;;2.50;;
14251;SDS011;7210;51.502;10.722;2023-08-12T14:23:35;2.60;;;2.40;;
14251;SDS011;7210;51.502;10.722;2023-08-12T14:26:03;3.85;;;2.50;;
14251;SDS011;7210;51.502;10.722;2023-08-12T14:28:35;2.80;;;2.58;;
14251;SDS011;7210;51.502;10.722;2023-08-12T14:31:04;3.38;;;2.70;;
14251;SDS011;7210;51.502;10.722;2023-08-12T14:33:41;3.08;;;2.63;;
14251;SDS011;7210;51.502;10.722;2023-08-12T14:43:03;2.63;;;2.42;;
14251;SDS011;7210;51.502;10.722;2023-08-12T14:45:37;2.63;;;2.42;;
14251;SDS011;7210;51.502;10.722;2023-08-12T14:48:04;4.40;;;2.55;;
14251;SDS011;7210;51.502;10.722;2023-08-12T14:50:32;3.20;;;3.00;;
14251;SDS011;7210;51.502;10.722;2023-08-12T14:53:00;2.90;;;2.42;;
14251;SDS011;7210;51.502;10.722;2023-08-12T14:55:27;3.05;;;2.40;;
14251;SDS011;7210;51.502;10.722;2023-08-12T14:58:05;2.28;;;2.08;;
14251;SDS011;7210;51.502;10.722;2023-08-12T15:00:32;2.30;;;1.92;;
14251;SDS011;7210;51.502;10.722;2023-08-12T15:03:02;4.07;;;2.10;;
14251;SDS011;7210;51.502;10.722;2023-08-12T15:05:35;2.33;;;2.13;;
14251;SDS011;7210;51.502;10.722;2023-08-12T15:08:03;2.50;;;2.30;;
14251;SDS011;7210;51.502;10.722;2023-08-12T15:10:35;2.95;;;2.40;;
14251;SDS011;7210;51.502;10.722;2023-08-12T15:13:03;2.28;;;2.08;;
14251;SDS011;7210;51.502;10.722;2023-08-12T15:15:30;2.55;;;2.28;;
14251;SDS011;7210;51.502;10.722;2023-08-12T15:17:57;2.92;;;2.10;;
14251;SDS011;7210;51.502;10.722;2023-08-12T15:20:31;2.13;;;1.92;;
14251;SDS011;7210;51.502;10.722;2023-08-12T15:26:23;2.30;;;2.10;;
14251;SDS011;7210;51.502;10.722;2023-08-12T15:42:10;2.20;;;2.00;;
14251;SDS011;7210;51.502;10.722;2023-08-12T15:52:52;1.85;;;1.65;;
14251;SDS011;7210;51.502;10.722;2023-08-12T15:55:19;2.58;;;1.90;;
14251;SDS011;7210;51.502;10.722;2023-08-12T16:05:08;1.95;;;1.73;;
14251;SDS011;7210;51.502;10.722;2023-08-12T16:07:47;2.15;;;1.95;;
14251;SDS011;7210;51.502;10.722;2023-08-12T16:21:52;2.40;;;2.00;;
14251;SDS011;7210;51.502;10.722;2023-08-12T16:28:26;2.20;;;2.00;;
14251;SDS011;7210;51.502;10.722;2023-08-12T16:33:58;2.28;;;2.08;;
14251;SDS011;7210;51.502;10.722;2023-08-12T16:42:47;2.40;;;2.20;;
14251;SDS011;7210;51.502;10.722;2023-08-12T16:45:15;2.53;;;2.03;;
14251;SDS011;7210;51.502;10.722;2023-08-12T16:47:44;2.65;;;2.03;;
14251;SDS011;7210;51.502;10.722;2023-08-12T16:50:17;2.35;;;2.15;;
14251;SDS011;7210;51.502;10.722;2023-08-12T16:52:45;2.00;;;1.90;;
14251;SDS011;7210;51.502;10.722;2023-08-12T16:55:12;2.97;;;2.10;;
14251;SDS011;7210;51.502;10.722;2023-08-12T16:57:41;3.80;;;2.30;;
14251;SDS011;7210;51.502;10.722;2023-08-12T17:00:09;2.40;;;2.20;;
14251;SDS011;7210;51.502;10.722;2023-08-12T17:02:37;2.50;;;2.30;;
14251;SDS011;7210;51.502;10.722;2023-08-12T17:05:08;2.58;;;2.28;;
14251;SDS011;7210;51.502;10.722;2023-08-12T17:07:49;2.40;;;2.20;;
14251;SDS011;7210;51.502;10.722;2023-08-12T17:10:16;2.80;;;2.45;;
14251;SDS011;7210;51.502;10.722;2023-08-12T17:12:44;2.40;;;2.20;;
14251;SDS011;7210;51.502;10.722;2023-08-12T17:15:17;2.22;;;2.03;;
14251;SDS011;7210;51.502;10.722;2023-08-12T17:17:47;2.50;;;2.30;;
14251;SDS011;7210;51.502;10.722;2023-08-12T17:20:15;3.70;;;2.47;;
14251;SDS011;7210;51.502;10.722;2023-08-12T17:22:42;2.67;;;2.40;;
14251;SDS011;7210;51.502;10.722;2023-08-12T17:25:11;3.47;;;2.60;;
14251;SDS011;7210;51.502;10.722;2023-08-12T17:27:38;2.47;;;2.28;;
14251;SDS011;7210;51.502;10.722;2023-08-12T17:30:06;2.72;;;2.40;;
14251;SDS011;7210;51.502;10.722;2023-08-12T17:32:35;2.58;;;2.38;;
14251;SDS011;7210;51.502;10.722;2023-08-12T17:35:03;2.80;;;2.25;;
14251;SDS011;7210;51.502;10.722;2023-08-12T17:37:37;3.25;;;2.50;;
14251;SDS011;7210;51.502;10.722;2023-08-12T17:40:05;2.88;;;2.60;;
14251;SDS011;7210;51.502;10.722;2023-08-12T17:42:49;3.22;;;2.70;;
14251;SDS011;7210;51.502;10.722;2023-08-12T17:45:23;3.08;;;2.78;;
14251;SDS011;7210;51.502;10.722;2023-08-12T17:47:54;3.10;;;2.80;;
14251;SDS011;7210;51.502;10.722;2023-08-12T17:50:23;3.00;;;2.67;;
14251;SDS011;7210;51.502;10.722;2023-08-12T17:52:51;2.85;;;2.55;;
14251;SDS011;7210;51.502;10.722;2023-08-12T17:55:23;4.47;;;2.70;;
14251;SDS011;7210;51.502;10.722;2023-08-12T17:57:52;3.20;;;2.92;;
14251;SDS011;7210;51.502;10.722;2023-08-12T18:00:19;3.35;;;2.60;;
14251;SDS011;7210;51.502;10.722;2023-08-12T18:02:48;3.05;;;2.75;;
14251;SDS011;7210;51.502;10.722;2023-08-12T18:05:16;3.97;;;2.80;;
14251;SDS011;7210;51.502;10.722;2023-08-12T18:07:43;3.50;;;2.78;;
14251;SDS011;7210;51.502;10.722;2023-08-12T18:10:11;3.78;;;2.78;;
14251;SDS011;7210;51.502;10.722;2023-08-12T18:12:41;2.83;;;2.63;;
14251;SDS011;7210;51.502;10.722;2023-08-12T18:15:16;3.08;;;2.88;;
14251;SDS011;7210;51.502;10.722;2023-08-12T18:17:53;3.08;;;2.75;;
14251;SDS011;7210;51.502;10.722;2023-08-12T18:20:21;3.27;;;2.97;;
14251;SDS011;7210;51.502;10.722;2023-08-12T18:22:53;3.37;;;3.00;;
14251;SDS011;7210;51.502;10.722;2023-08-12T18:25:23;2.90;;;2.70;;
14251;SDS011;7210;51.502;10.722;2023-08-12T18:30:39;4.40;;;2.83;;
14251;SDS011;7210;51.502;10.722;2023-08-12T18:33:11;3.58;;;3.03;;
14251;SDS011;7210;51.502;10.722;2023-08-12T18:35:39;2.90;;;2.60;;
14251;SDS011;7210;51.502;10.722;2023-08-12T18:38:06;4.90;;;3.30;;
14251;SDS011;7210;51.502;10.722;2023-08-12T18:40:34;4.07;;;2.30;;
14251;SDS011;7210;51.502;10.722;2023-08-12T18:43:02;3.37;;;2.10;;
14251;SDS011;7210;51.502;10.722;2023-08-12T18:45:29;2.20;;;2.00;;
14251;SDS011;7210;51.502;10.722;2023-08-12T18:47:58;2.67;;;1.93;;
14251;SDS011;7210;51.502;10.722;2023-08-12T18:50:26;2.20;;;2.00;;
14251;SDS011;7210;51.502;10.722;2023-08-12T18:52:53;2.27;;;1.80;;
14251;SDS011;7210;51.502;10.722;2023-08-12T18:55:20;4.00;;;2.17;;
14251;SDS011;7210;51.502;10.722;2023-08-12T18:57:48;3.13;;;2.23;;
14251;SDS011;7210;51.502;10.722;2023-08-12T19:00:16;3.53;;;2.20;;
14251;SDS011;7210;51.502;10.722;2023-08-12T19:02:47;3.03;;;2.30;;
14251;SDS011;7210;51.502;10.722;2023-08-12T19:05:17;3.07;;;2.40;;
14251;SDS011;7210;51.502;10.722;2023-08-12T19:10:35;3.57;;;2.57;;
14251;SDS011;7210;51.502;10.722;2023-08-12T19:13:05;2.63;;;1.97;;
14251;SDS011;7210;51.502;10.722;2023-08-12T19:15:32;4.30;;;2.47;;
14251;SDS011;7210;51.502;10.722;2023-08-12T19:18:05;2.83;;;2.30;;